sensor_id;sensor_type;location;lat;lon;timestamp;pressure;altitude;pressure_sealevel;temperature
67515;BMP280;60646;55.802;37.032;2022-10-17T00:02:05;100873.66;;;12.23
67515;BMP280;60646;55.802;37.032;2022-10-17T00:04:31;100869.47;;;12.22
67515;BMP280;60646;55.802;37.032;2022-10-17T00:06:56;100870.22;;;12.23
67515;BMP280;60646;55.802;37.032;2022-10-17T00:09:22;100858.00;;;12.22
67515;BMP280;60646;55.802;37.032;2022-10-17T00:11:47;100860.25;;;12.23
67515;BMP280;60646;55.802;37.032;2022-10-17T00:14:13;100848.78;;;12.23
67515;BMP280;60646;55.802;37.032;2022-10-17T00:16:39;100851.47;;;12.23
67515;BMP280;60646;55.802;37.032;2022-10-17T00:19:05;100843.44;;;12.23
67515;BMP280;60646;55.802;37.032;2022-10-17T00:21:31;100838.81;;;12.23
67515;BMP280;60646;55.802;37.032;2022-10-17T00:23:57;100841.94;;;12.22
67515;BMP280;60646;55.802;37.032;2022-10-17T00:26:23;100833.47;;;12.23
67515;BMP280;60646;55.802;37.032;2022-10-17T00:28:50;100832.72;;;12.23
67515;BMP280;60646;55.802;37.032;2022-10-17T00:31:16;100830.47;;;12.21
67515;BMP280;60646;55.802;37.032;2022-10-17T00:33:42;100826.31;;;12.20
67515;BMP280;60646;55.802;37.032;2022-10-17T00:36:26;100827.56;;;12.19
67515;BMP280;60646;55.802;37.032;2022-10-17T00:38:54;100826.53;;;12.17
67515;BMP280;60646;55.802;37.032;2022-10-17T00:41:21;100819.69;;;12.16
67515;BMP280;60646;55.802;37.032;2022-10-17T00:46:19;100815.53;;;12.15
67515;BMP280;60646;55.802;37.032;2022-10-17T00:48:45;100814.03;;;12.14
67515;BMP280;60646;55.802;37.032;2022-10-17T00:51:12;100806.50;;;12.12
67515;BMP280;60646;55.802;37.032;2022-10-17T00:53:39;100805.75;;;12.12
67515;BMP280;60646;55.802;37.032;2022-10-17T00:56:04;100804.28;;;12.11
67515;BMP280;60646;55.802;37.032;2022-10-17T00:58:30;100793.28;;;12.09
67515;BMP280;60646;55.802;37.032;2022-10-17T01:00:57;100794.47;;;12.08
67515;BMP280;60646;55.802;37.032;2022-10-17T01:03:23;100784.69;;;12.05
67515;BMP280;60646;55.802;37.032;2022-10-17T01:05:48;100784.69;;;12.05
67515;BMP280;60646;55.802;37.032;2022-10-17T01:08:14;100781.28;;;12.04
67515;BMP280;60646;55.802;37.032;2022-10-17T01:13:58;100777.59;;;12.02
67515;BMP280;60646;55.802;37.032;2022-10-17T01:21:31;100762.44;;;11.99
67515;BMP280;60646;55.802;37.032;2022-10-17T01:31:58;100744.88;;;11.98
67515;BMP280;60646;55.802;37.032;2022-10-17T01:39:50;100743.44;;;11.97
67515;BMP280;60646;55.802;37.032;2022-10-17T01:44:51;100740.00;;;11.96
67515;BMP280;60646;55.802;37.032;2022-10-17T01:47:21;100733.16;;;11.95
67515;BMP280;60646;55.802;37.032;2022-10-17T01:49:50;100732.41;;;11.95
67515;BMP280;60646;55.802;37.032;2022-10-17T01:52:23;100738.97;;;11.94
67515;BMP280;60646;55.802;37.032;2022-10-17T01:55:02;100729.47;;;11.93
67515;BMP280;60646;55.802;37.032;2022-10-17T01:57:32;100736.06;;;11.92
67515;BMP280;60646;55.802;37.032;2022-10-17T01:59:59;100731.88;;;11.91
67515;BMP280;60646;55.802;37.032;2022-10-17T02:02:29;100735.75;;;11.90
67515;BMP280;60646;55.802;37.032;2022-10-17T02:04:55;100728.91;;;11.89
67515;BMP280;60646;55.802;37.032;2022-10-17T02:07:21;100727.44;;;11.88
67515;BMP280;60646;55.802;37.032;2022-10-17T02:09:47;100731.31;;;11.87
67515;BMP280;60646;55.802;37.032;2022-10-17T02:17:18;100728.38;;;11.85
67515;BMP280;60646;55.802;37.032;2022-10-17T02:19:54;100720.81;;;11.83
67515;BMP280;60646;55.802;37.032;2022-10-17T02:22:31;100720.06;;;11.83
67515;BMP280;60646;55.802;37.032;2022-10-17T02:29:59;100717.41;;;11.83
67515;BMP280;60646;55.802;37.032;2022-10-17T02:34:57;100705.50;;;11.84
67515;BMP280;60646;55.802;37.032;2022-10-17T02:37:26;100708.63;;;11.82
67515;BMP280;60646;55.802;37.032;2022-10-17T02:39:56;100709.38;;;11.83
67515;BMP280;60646;55.802;37.032;2022-10-17T02:42:23;100706.38;;;11.81
67515;BMP280;60646;55.802;37.032;2022-10-17T02:44:50;100702.53;;;11.82
67515;BMP280;60646;55.802;37.032;2022-10-17T02:49:52;100697.16;;;11.82
67515;BMP280;60646;55.802;37.032;2022-10-17T02:54:52;100691.38;;;11.83
67515;BMP280;60646;55.802;37.032;2022-10-17T03:00:21;100681.63;;;11.86
67515;BMP280;60646;55.802;37.032;2022-10-17T03:02:49;100673.59;;;11.86
67515;BMP280;60646;55.802;37.032;2022-10-17T03:05:17;100668.53;;;11.88
67515;BMP280;60646;55.802;37.032;2022-10-17T03:07:43;100665.41;;;11.89
67515;BMP280;60646;55.802;37.032;2022-10-17T03:10:09;100667.63;;;11.91
67515;BMP280;60646;55.802;37.032;2022-10-17T03:12:35;100670.56;;;11.93
67515;BMP280;60646;55.802;37.032;2022-10-17T03:15:01;100661.31;;;11.94
67515;BMP280;60646;55.802;37.032;2022-10-17T03:17:29;100662.78;;;11.95
67515;BMP280;60646;55.802;37.032;2022-10-17T03:19:55;100662.06;;;11.94
67515;BMP280;60646;55.802;37.032;2022-10-17T03:22:20;100658.19;;;11.95
67515;BMP280;60646;55.802;37.032;2022-10-17T03:24:46;100646.28;;;11.96
67515;BMP280;60646;55.802;37.032;2022-10-17T03:27:13;100658.94;;;11.96
67515;BMP280;60646;55.802;37.032;2022-10-17T03:29:38;100649.69;;;11.97
67515;BMP280;60646;55.802;37.032;2022-10-17T03:32:06;100645.81;;;11.98
67515;BMP280;60646;55.802;37.032;2022-10-17T03:34:32;100646.53;;;11.98
67515;BMP280;60646;55.802;37.032;2022-10-17T03:36:57;100625.13;;;11.98
67515;BMP280;60646;55.802;37.032;2022-10-17T03:39:26;100633.41;;;12.00
67515;BMP280;60646;55.802;37.032;2022-10-17T03:41:52;100641.72;;;12.02
67515;BMP280;60646;55.802;37.032;2022-10-17T03:44:19;100637.09;;;12.03
67515;BMP280;60646;55.802;37.032;2022-10-17T03:46:44;100636.34;;;12.02
67515;BMP280;60646;55.802;37.032;2022-10-17T03:49:10;100630.28;;;12.02
67515;BMP280;60646;55.802;37.032;2022-10-17T03:51:36;100626.13;;;12.01
67515;BMP280;60646;55.802;37.032;2022-10-17T03:54:07;100624.19;;;12.01
67515;BMP280;60646;55.802;37.032;2022-10-17T03:56:32;100612.25;;;12.02
67515;BMP280;60646;55.802;37.032;2022-10-17T03:59:02;100611.53;;;12.02
67515;BMP280;60646;55.802;37.032;2022-10-17T04:01:31;100599.59;;;12.03
67515;BMP280;60646;55.802;37.032;2022-10-17T04:03:57;100595.72;;;12.04
67515;BMP280;60646;55.802;37.032;2022-10-17T04:06:27;100597.22;;;12.05
67515;BMP280;60646;55.802;37.032;2022-10-17T04:08:53;100589.19;;;12.05
67515;BMP280;60646;55.802;37.032;2022-10-17T04:11:39;100585.31;;;12.06
67515;BMP280;60646;55.802;37.032;2022-10-17T04:14:05;100580.19;;;12.08
67515;BMP280;60646;55.802;37.032;2022-10-17T04:16:31;100576.31;;;12.09
67515;BMP280;60646;55.802;37.032;2022-10-17T04:19:06;100572.91;;;12.08
67515;BMP280;60646;55.802;37.032;2022-10-17T04:21:39;100569.75;;;12.10
67515;BMP280;60646;55.802;37.032;2022-10-17T04:24:23;100572.44;;;12.10
67515;BMP280;60646;55.802;37.032;2022-10-17T04:27:01;100583.41;;;12.12
67515;BMP280;60646;55.802;37.032;2022-10-17T04:29:29;100580.75;;;12.12
67515;BMP280;60646;55.802;37.032;2022-10-17T04:32:04;100591.25;;;12.15
67515;BMP280;60646;55.802;37.032;2022-10-17T04:34:43;100593.47;;;12.17
67515;BMP280;60646;55.802;37.032;2022-10-17T04:37:09;100580.34;;;12.19
67515;BMP280;60646;55.802;37.032;2022-10-17T04:39:35;100566.00;;;12.22
67515;BMP280;60646;55.802;37.032;2022-10-17T04:42:01;100569.41;;;12.22
67515;BMP280;60646;55.802;37.032;2022-10-17T04:44:27;100570.91;;;12.23
67515;BMP280;60646;55.802;37.032;2022-10-17T04:46:56;100584.56;;;12.25
67515;BMP280;60646;55.802;37.032;2022-10-17T04:49:22;100569.97;;;12.26
67515;BMP280;60646;55.802;37.032;2022-10-17T04:51:51;100560.00;;;12.27
67515;BMP280;60646;55.802;37.032;2022-10-17T04:54:42;100556.84;;;12.28
67515;BMP280;60646;55.802;37.032;2022-10-17T04:57:12;100560.50;;;12.31
67515;BMP280;60646;55.802;37.032;2022-10-17T04:59:39;100555.44;;;12.33
67515;BMP280;60646;55.802;37.032;2022-10-17T05:02:37;100570.28;;;12.34
67515;BMP280;60646;55.802;37.032;2022-10-17T05:05:03;100571.75;;;12.35
67515;BMP280;60646;55.802;37.032;2022-10-17T05:07:29;100563.25;;;12.37
67515;BMP280;60646;55.802;37.032;2022-10-17T05:10:05;100559.38;;;12.38
67515;BMP280;60646;55.802;37.032;2022-10-17T05:12:31;100555.03;;;12.40
67515;BMP280;60646;55.802;37.032;2022-10-17T05:14:57;100547.25;;;12.42
67515;BMP280;60646;55.802;37.032;2022-10-17T05:17:24;100556.03;;;12.43
67515;BMP280;60646;55.802;37.032;2022-10-17T05:19:50;100542.13;;;12.44
67515;BMP280;60646;55.802;37.032;2022-10-17T05:22:16;100534.38;;;12.46
67515;BMP280;60646;55.802;37.032;2022-10-17T05:24:42;100517.34;;;12.49
67515;BMP280;60646;55.802;37.032;2022-10-17T05:27:08;100514.94;;;12.51
67515;BMP280;60646;55.802;37.032;2022-10-17T05:29:34;100515.44;;;12.55
67515;BMP280;60646;55.802;37.032;2022-10-17T05:32:11;100525.22;;;12.58
67515;BMP280;60646;55.802;37.032;2022-10-17T05:34:37;100528.19;;;12.60
67515;BMP280;60646;55.802;37.032;2022-10-17T05:37:02;100516.97;;;12.62
67515;BMP280;60646;55.802;37.032;2022-10-17T05:39:29;100520.19;;;12.66
67515;BMP280;60646;55.802;37.032;2022-10-17T05:42:15;100511.69;;;12.67
67515;BMP280;60646;55.802;37.032;2022-10-17T05:45:05;100530.69;;;12.69
67515;BMP280;60646;55.802;37.032;2022-10-17T05:47:42;100531.69;;;12.72
67515;BMP280;60646;55.802;37.032;2022-10-17T05:50:08;100531.47;;;12.75
67515;BMP280;60646;55.802;37.032;2022-10-17T05:52:54;100531.00;;;12.77
67515;BMP280;60646;55.802;37.032;2022-10-17T05:55:21;100536.16;;;12.80
67515;BMP280;60646;55.802;37.032;2022-10-17T05:57:48;100527.16;;;12.83
67515;BMP280;60646;55.802;37.032;2022-10-17T06:00:18;100520.88;;;12.86
67515;BMP280;60646;55.802;37.032;2022-10-17T06:02:51;100526.44;;;12.88
67515;BMP280;60646;55.802;37.032;2022-10-17T06:05:18;100537.75;;;12.93
67515;BMP280;60646;55.802;37.032;2022-10-17T06:07:44;100533.84;;;12.94
67515;BMP280;60646;55.802;37.032;2022-10-17T06:10:12;100535.31;;;12.95
67515;BMP280;60646;55.802;37.032;2022-10-17T06:12:41;100528.22;;;12.97
67515;BMP280;60646;55.802;37.032;2022-10-17T06:15:07;100530.47;;;12.99
67515;BMP280;60646;55.802;37.032;2022-10-17T06:17:34;100523.44;;;13.01
67515;BMP280;60646;55.802;37.032;2022-10-17T06:20:00;100516.34;;;13.04
67515;BMP280;60646;55.802;37.032;2022-10-17T06:22:25;100504.66;;;13.07
67515;BMP280;60646;55.802;37.032;2022-10-17T06:25:08;100505.66;;;13.09
67515;BMP280;60646;55.802;37.032;2022-10-17T06:27:47;100489.81;;;13.11
67515;BMP280;60646;55.802;37.032;2022-10-17T06:30:13;100477.66;;;13.16
67515;BMP280;60646;55.802;37.032;2022-10-17T06:32:39;100476.22;;;13.20
67515;BMP280;60646;55.802;37.032;2022-10-17T06:35:05;100478.19;;;13.25
67515;BMP280;60646;55.802;37.032;2022-10-17T06:37:30;100475.28;;;13.29
67515;BMP280;60646;55.802;37.032;2022-10-17T06:39:58;100482.41;;;13.32
67515;BMP280;60646;55.802;37.032;2022-10-17T06:42:24;100476.31;;;13.37
67515;BMP280;60646;55.802;37.032;2022-10-17T06:45:04;100479.50;;;13.41
67515;BMP280;60646;55.802;37.032;2022-10-17T06:47:36;100492.25;;;13.46
67515;BMP280;60646;55.802;37.032;2022-10-17T06:50:12;100486.63;;;13.49
67515;BMP280;60646;55.802;37.032;2022-10-17T06:52:49;100496.41;;;13.52
67515;BMP280;60646;55.802;37.032;2022-10-17T06:55:35;100483.97;;;13.55
67515;BMP280;60646;55.802;37.032;2022-10-17T06:58:22;100484.22;;;13.57
67515;BMP280;60646;55.802;37.032;2022-10-17T07:01:03;100499.13;;;13.58
67515;BMP280;60646;55.802;37.032;2022-10-17T07:03:29;100497.94;;;13.59
67515;BMP280;60646;55.802;37.032;2022-10-17T07:05:55;100490.09;;;13.61
67515;BMP280;60646;55.802;37.032;2022-10-17T07:08:22;100477.69;;;13.64
67515;BMP280;60646;55.802;37.032;2022-10-17T07:10:48;100481.09;;;13.64
67515;BMP280;60646;55.802;37.032;2022-10-17T07:13:14;100480.13;;;13.67
67515;BMP280;60646;55.802;37.032;2022-10-17T07:15:40;100476.22;;;13.68
67515;BMP280;60646;55.802;37.032;2022-10-17T07:18:06;100469.91;;;13.71
67515;BMP280;60646;55.802;37.032;2022-10-17T07:20:32;100470.63;;;13.72
67515;BMP280;60646;55.802;37.032;2022-10-17T07:22:57;100465.50;;;13.74
67515;BMP280;60646;55.802;37.032;2022-10-17T07:25:23;100452.78;;;13.74
67515;BMP280;60646;55.802;37.032;2022-10-17T07:27:59;100454.28;;;13.75
67515;BMP280;60646;55.802;37.032;2022-10-17T07:30:44;100446.94;;;13.76
67515;BMP280;60646;55.802;37.032;2022-10-17T07:33:15;100455.00;;;13.76
67515;BMP280;60646;55.802;37.032;2022-10-17T07:35:43;100449.16;;;13.77
67515;BMP280;60646;55.802;37.032;2022-10-17T07:38:09;100454.53;;;13.77
67515;BMP280;60646;55.802;37.032;2022-10-17T07:40:35;100462.59;;;13.77
67515;BMP280;60646;55.802;37.032;2022-10-17T07:43:02;100461.13;;;13.76
67515;BMP280;60646;55.802;37.032;2022-10-17T07:45:28;100456.50;;;13.77
67515;BMP280;60646;55.802;37.032;2022-10-17T07:47:56;100457.22;;;13.77
67515;BMP280;60646;55.802;37.032;2022-10-17T07:50:21;100456.00;;;13.78
67515;BMP280;60646;55.802;37.032;2022-10-17T07:52:47;100456.25;;;13.80
67515;BMP280;60646;55.802;37.032;2022-10-17T07:55:13;100446.50;;;13.83
67515;BMP280;60646;55.802;37.032;2022-10-17T07:57:39;100459.44;;;13.84
67515;BMP280;60646;55.802;37.032;2022-10-17T08:00:05;100468.22;;;13.85
67515;BMP280;60646;55.802;37.032;2022-10-17T08:02:38;100475.81;;;13.86
67515;BMP280;60646;55.802;37.032;2022-10-17T08:05:04;100473.34;;;13.88
67515;BMP280;60646;55.802;37.032;2022-10-17T08:07:29;100446.75;;;13.90
67515;BMP280;60646;55.802;37.032;2022-10-17T08:09:55;100453.09;;;13.93
67515;BMP280;60646;55.802;37.032;2022-10-17T08:12:21;100468.47;;;13.92
67515;BMP280;60646;55.802;37.032;2022-10-17T08:14:47;100464.56;;;13.93
67515;BMP280;60646;55.802;37.032;2022-10-17T08:17:13;100454.09;;;13.95
67515;BMP280;60646;55.802;37.032;2022-10-17T08:19:39;100447.53;;;13.96
67515;BMP280;60646;55.802;37.032;2022-10-17T08:22:05;100452.38;;;13.98
67515;BMP280;60646;55.802;37.032;2022-10-17T08:24:31;100451.16;;;13.99
67515;BMP280;60646;55.802;37.032;2022-10-17T08:26:57;100432.81;;;13.97
67515;BMP280;60646;55.802;37.032;2022-10-17T08:29:22;100446.28;;;14.03
67515;BMP280;60646;55.802;37.032;2022-10-17T08:31:48;100458.50;;;14.04
67515;BMP280;60646;55.802;37.032;2022-10-17T08:34:14;100462.16;;;14.06
67515;BMP280;60646;55.802;37.032;2022-10-17T08:36:40;100469.75;;;14.08
67515;BMP280;60646;55.802;37.032;2022-10-17T08:39:07;100459.75;;;14.08
67515;BMP280;60646;55.802;37.032;2022-10-17T08:42:42;100467.81;;;14.08
67515;BMP280;60646;55.802;37.032;2022-10-17T08:46:57;100444.59;;;14.05
67515;BMP280;60646;55.802;37.032;2022-10-17T08:51:54;100440.19;;;14.02
67515;BMP280;60646;55.802;37.032;2022-10-17T08:54:25;100437.25;;;14.00
67515;BMP280;60646;55.802;37.032;2022-10-17T08:56:57;100418.94;;;13.99
67515;BMP280;60646;55.802;37.032;2022-10-17T08:59:26;100460.44;;;13.98
67515;BMP280;60646;55.802;37.032;2022-10-17T09:09:40;100459.69;;;13.86
67515;BMP280;60646;55.802;37.032;2022-10-17T09:14:40;100460.66;;;13.83
67515;BMP280;60646;55.802;37.032;2022-10-17T09:19:52;100435.03;;;13.82
67515;BMP280;60646;55.802;37.032;2022-10-17T09:22:22;100443.09;;;13.82
67515;BMP280;60646;55.802;37.032;2022-10-17T09:24:55;100441.59;;;13.81
67515;BMP280;60646;55.802;37.032;2022-10-17T09:29:52;100440.63;;;13.84
67515;BMP280;60646;55.802;37.032;2022-10-17T09:32:23;100440.63;;;13.84
67515;BMP280;60646;55.802;37.032;2022-10-17T09:34:50;100442.09;;;13.85
67515;BMP280;60646;55.802;37.032;2022-10-17T09:37:16;100446.72;;;13.85
67515;BMP280;60646;55.802;37.032;2022-10-17T09:39:42;100428.66;;;13.85
67515;BMP280;60646;55.802;37.032;2022-10-17T09:42:12;100425.97;;;13.85
67515;BMP280;60646;55.802;37.032;2022-10-17T09:49:34;100411.34;;;13.86
67515;BMP280;60646;55.802;37.032;2022-10-17T09:52:01;100406.69;;;13.87
67515;BMP280;60646;55.802;37.032;2022-10-17T09:54:35;100407.44;;;13.87
67515;BMP280;60646;55.802;37.032;2022-10-17T09:57:05;100406.19;;;13.88
67515;BMP280;60646;55.802;37.032;2022-10-17T09:59:33;100409.63;;;13.89
67515;BMP280;60646;55.802;37.032;2022-10-17T10:02:13;100400.38;;;13.90
67515;BMP280;60646;55.802;37.032;2022-10-17T10:05:01;100390.34;;;13.90
67515;BMP280;60646;55.802;37.032;2022-10-17T10:07:26;100382.50;;;13.92
67515;BMP280;60646;55.802;37.032;2022-10-17T10:09:52;100384.00;;;13.93
67515;BMP280;60646;55.802;37.032;2022-10-17T10:12:26;100375.47;;;13.95
67515;BMP280;60646;55.802;37.032;2022-10-17T10:14:52;100388.41;;;13.96
67515;BMP280;60646;55.802;37.032;2022-10-17T10:19:52;100375.47;;;14.00
67515;BMP280;60646;55.802;37.032;2022-10-17T10:22:19;100393.03;;;14.01
67515;BMP280;60646;55.802;37.032;2022-10-17T10:24:46;100377.91;;;14.04
67515;BMP280;60646;55.802;37.032;2022-10-17T10:27:30;100384.75;;;14.05
67515;BMP280;60646;55.802;37.032;2022-10-17T10:29:56;100386.19;;;14.06
67515;BMP280;60646;55.802;37.032;2022-10-17T10:32:32;100373.03;;;14.08
67515;BMP280;60646;55.802;37.032;2022-10-17T10:34:59;100363.03;;;14.08
67515;BMP280;60646;55.802;37.032;2022-10-17T10:37:39;100356.41;;;14.09
67515;BMP280;60646;55.802;37.032;2022-10-17T10:42:42;100352.97;;;14.09
67515;BMP280;60646;55.802;37.032;2022-10-17T10:47:39;100353.25;;;14.05
67515;BMP280;60646;55.802;37.032;2022-10-17T10:50:21;100344.91;;;14.03
67515;BMP280;60646;55.802;37.032;2022-10-17T10:52:57;100348.84;;;14.02
67515;BMP280;60646;55.802;37.032;2022-10-17T10:55:35;100349.56;;;14.03
67515;BMP280;60646;55.802;37.032;2022-10-17T11:00:45;100351.28;;;14.00
67515;BMP280;60646;55.802;37.032;2022-10-17T11:03:16;100349.56;;;14.03
67515;BMP280;60646;55.802;37.032;2022-10-17T11:10:52;100346.41;;;14.04
67515;BMP280;60646;55.802;37.032;2022-10-17T11:13:25;100343.22;;;14.06
67515;BMP280;60646;55.802;37.032;2022-10-17T11:18:54;100334.69;;;14.07
67515;BMP280;60646;55.802;37.032;2022-10-17T11:21:34;100332.00;;;14.07
67515;BMP280;60646;55.802;37.032;2022-10-17T11:24:03;100334.19;;;14.09
67515;BMP280;60646;55.802;37.032;2022-10-17T11:26:41;100320.25;;;14.10
67515;BMP280;60646;55.802;37.032;2022-10-17T11:29:08;100322.94;;;14.10
67515;BMP280;60646;55.802;37.032;2022-10-17T11:31:37;100332.00;;;14.13
67515;BMP280;60646;55.802;37.032;2022-10-17T11:34:20;100321.97;;;14.13
67515;BMP280;60646;55.802;37.032;2022-10-17T11:36:47;100311.22;;;14.13
67515;BMP280;60646;55.802;37.032;2022-10-17T11:39:17;100301.97;;;14.15
67515;BMP280;60646;55.802;37.032;2022-10-17T11:41:46;100298.00;;;14.15
67515;BMP280;60646;55.802;37.032;2022-10-17T11:44:28;100294.09;;;14.17
67515;BMP280;60646;55.802;37.032;2022-10-17T11:46:59;100295.59;;;14.18
67515;BMP280;60646;55.802;37.032;2022-10-17T11:49:28;100299.75;;;14.19
67515;BMP280;60646;55.802;37.032;2022-10-17T11:54:44;100282.38;;;14.20
67515;BMP280;60646;55.802;37.032;2022-10-17T12:07:54;100267.97;;;14.23
67515;BMP280;60646;55.802;37.032;2022-10-17T12:15:57;100278.22;;;14.24
67515;BMP280;60646;55.802;37.032;2022-10-17T12:18:23;100285.81;;;14.26
67515;BMP280;60646;55.802;37.032;2022-10-17T12:20:55;100276.53;;;14.27
67515;BMP280;60646;55.802;37.032;2022-10-17T12:23:28;100289.97;;;14.27
67515;BMP280;60646;55.802;37.032;2022-10-17T12:31:05;100288.97;;;14.30
67515;BMP280;60646;55.802;37.032;2022-10-17T12:38:51;100279.69;;;14.31
67515;BMP280;60646;55.802;37.032;2022-10-17T12:52:05;100331.00;;;14.27
67515;BMP280;60646;55.802;37.032;2022-10-17T12:54:36;100335.66;;;14.27
67515;BMP280;60646;55.802;37.032;2022-10-17T12:57:12;100333.44;;;14.25
67515;BMP280;60646;55.802;37.032;2022-10-17T12:59:39;100337.34;;;14.24
67515;BMP280;60646;55.802;37.032;2022-10-17T13:02:07;100344.69;;;14.24
67515;BMP280;60646;55.802;37.032;2022-10-17T13:04:37;100358.13;;;14.24
67515;BMP280;60646;55.802;37.032;2022-10-17T13:10:05;100371.31;;;14.22
67515;BMP280;60646;55.802;37.032;2022-10-17T13:13:14;100375.22;;;14.21
67515;BMP280;60646;55.802;37.032;2022-10-17T13:15:44;100373.75;;;14.20
67515;BMP280;60646;55.802;37.032;2022-10-17T13:18:15;100388.44;;;14.19
67515;BMP280;60646;55.802;37.032;2022-10-17T13:20:52;100376.19;;;14.18
67515;BMP280;60646;55.802;37.032;2022-10-17T13:23:25;100384.50;;;14.20
67515;BMP280;60646;55.802;37.032;2022-10-17T13:31:34;100336.13;;;14.20
67515;BMP280;60646;55.802;37.032;2022-10-17T13:34:01;100329.03;;;14.22
67515;BMP280;60646;55.802;37.032;2022-10-17T13:36:28;100327.34;;;14.25
67515;BMP280;60646;55.802;37.032;2022-10-17T13:38:55;100319.75;;;14.29
67515;BMP280;60646;55.802;37.032;2022-10-17T13:41:26;100311.19;;;14.30
67515;BMP280;60646;55.802;37.032;2022-10-17T13:43:52;100304.63;;;14.26
67515;BMP280;60646;55.802;37.032;2022-10-17T13:46:23;100302.66;;;14.32
67515;BMP280;60646;55.802;37.032;2022-10-17T13:48:50;100308.25;;;14.34
67515;BMP280;60646;55.802;37.032;2022-10-17T13:51:18;100310.19;;;14.33
67515;BMP280;60646;55.802;37.032;2022-10-17T13:53:44;100302.88;;;14.34
67515;BMP280;60646;55.802;37.032;2022-10-17T13:56:20;100306.81;;;14.33
67515;BMP280;60646;55.802;37.032;2022-10-17T13:59:20;100305.09;;;14.30
67515;BMP280;60646;55.802;37.032;2022-10-17T14:01:47;100302.41;;;14.30
67515;BMP280;60646;55.802;37.032;2022-10-17T14:04:14;100296.28;;;14.29
67515;BMP280;60646;55.802;37.032;2022-10-17T14:06:43;100299.47;;;14.28
67515;BMP280;60646;55.802;37.032;2022-10-17T14:09:17;100288.50;;;14.26
67515;BMP280;60646;55.802;37.032;2022-10-17T14:11:54;100282.16;;;14.23
67515;BMP280;60646;55.802;37.032;2022-10-17T14:14:21;100279.94;;;14.22
67515;BMP280;60646;55.802;37.032;2022-10-17T14:16:47;100287.75;;;14.20
67515;BMP280;60646;55.802;37.032;2022-10-17T14:19:26;100292.63;;;14.15
67515;BMP280;60646;55.802;37.032;2022-10-17T14:21:54;100293.63;;;14.12
67515;BMP280;60646;55.802;37.032;2022-10-17T14:26:48;100292.44;;;14.08
67515;BMP280;60646;55.802;37.032;2022-10-17T14:31:46;100298.31;;;14.01
67515;BMP280;60646;55.802;37.032;2022-10-17T14:34:15;100305.34;;;13.98
67515;BMP280;60646;55.802;37.032;2022-10-17T14:36:44;100302.47;;;13.96
67515;BMP280;60646;55.802;37.032;2022-10-17T14:42:20;100309.78;;;13.90
67515;BMP280;60646;55.802;37.032;2022-10-17T14:44:50;100308.06;;;13.87
67515;BMP280;60646;55.802;37.032;2022-10-17T14:47:20;100303.16;;;13.86
67515;BMP280;60646;55.802;37.032;2022-10-17T14:49:49;100303.66;;;13.84
67515;BMP280;60646;55.802;37.032;2022-10-17T14:54:43;100295.09;;;13.80
67515;BMP280;60646;55.802;37.032;2022-10-17T14:57:17;100312.41;;;13.79
67515;BMP280;60646;55.802;37.032;2022-10-17T14:59:43;100311.69;;;13.79
67515;BMP280;60646;55.802;37.032;2022-10-17T15:02:10;100316.34;;;13.78
67515;BMP280;60646;55.802;37.032;2022-10-17T15:04:42;100331.75;;;13.78
67515;BMP280;60646;55.802;37.032;2022-10-17T15:07:14;100335.16;;;13.78
67515;BMP280;60646;55.802;37.032;2022-10-17T15:09:40;100328.53;;;13.79
67515;BMP280;60646;55.802;37.032;2022-10-17T15:12:06;100331.50;;;13.81
67515;BMP280;60646;55.802;37.032;2022-10-17T15:14:35;100335.88;;;13.84
67515;BMP280;60646;55.802;37.032;2022-10-17T15:17:11;100331.97;;;13.85
67515;BMP280;60646;55.802;37.032;2022-10-17T15:19:38;100332.25;;;13.87
67515;BMP280;60646;55.802;37.032;2022-10-17T15:22:04;100324.41;;;13.89
67515;BMP280;60646;55.802;37.032;2022-10-17T15:24:29;100338.09;;;13.91
67515;BMP280;60646;55.802;37.032;2022-10-17T15:26:55;100325.63;;;13.94
67515;BMP280;60646;55.802;37.032;2022-10-17T15:29:21;100328.59;;;13.96
67515;BMP280;60646;55.802;37.032;2022-10-17T15:31:46;100328.06;;;13.97
67515;BMP280;60646;55.802;37.032;2022-10-17T15:34:12;100320.00;;;13.97
67515;BMP280;60646;55.802;37.032;2022-10-17T15:36:38;100320.25;;;13.99
67515;BMP280;60646;55.802;37.032;2022-10-17T15:39:04;100321.75;;;14.00
67515;BMP280;60646;55.802;37.032;2022-10-17T15:41:31;100322.94;;;13.99
67515;BMP280;60646;55.802;37.032;2022-10-17T15:43:59;100318.31;;;14.00
67515;BMP280;60646;55.802;37.032;2022-10-17T15:46:26;100321.75;;;14.00
67515;BMP280;60646;55.802;37.032;2022-10-17T15:48:53;100321.75;;;14.00
67515;BMP280;60646;55.802;37.032;2022-10-17T15:51:19;100320.50;;;14.01
67515;BMP280;60646;55.802;37.032;2022-10-17T15:53:45;100321.97;;;14.02
67515;BMP280;60646;55.802;37.032;2022-10-17T15:56:27;100322.69;;;14.03
67515;BMP280;60646;55.802;37.032;2022-10-17T15:58:53;100318.06;;;14.03
67515;BMP280;60646;55.802;37.032;2022-10-17T16:01:27;100311.94;;;14.03
67515;BMP280;60646;55.802;37.032;2022-10-17T16:03:54;100322.69;;;14.03
67515;BMP280;60646;55.802;37.032;2022-10-17T16:06:20;100322.22;;;14.04
67515;BMP280;60646;55.802;37.032;2022-10-17T16:08:46;100324.91;;;14.04
67515;BMP280;60646;55.802;37.032;2022-10-17T16:11:57;100331.75;;;14.05
67515;BMP280;60646;55.802;37.032;2022-10-17T16:13:59;100333.94;;;14.07
67515;BMP280;60646;55.802;37.032;2022-10-17T16:16:25;100326.84;;;14.09
67515;BMP280;60646;55.802;37.032;2022-10-17T16:18:54;100335.91;;;14.12
67515;BMP280;60646;55.802;37.032;2022-10-17T16:21:21;100323.47;;;14.15
67515;BMP280;60646;55.802;37.032;2022-10-17T16:23:49;100319.50;;;14.15
67515;BMP280;60646;55.802;37.032;2022-10-17T16:26:15;100326.63;;;14.19
67515;BMP280;60646;55.802;37.032;2022-10-17T16:28:41;100323.94;;;14.19